sensor_id;sensor_type;location;lat;lon;timestamp;pressure;altitude;pressure_sealevel;temperature;humidity
23241;BME280;11789;53.482;9.862;2024-01-16T00:01:05;100297.25;;;-1.46;100.00
23241;BME280;11789;53.482;9.862;2024-01-16T00:03:31;100303.91;;;-1.48;100.00
23241;BME280;11789;53.482;9.862;2024-01-16T00:05:57;100305.37;;;-1.55;100.00
23241;BME280;11789;53.482;9.862;2024-01-16T00:08:23;100310.31;;;-1.58;100.00
23241;BME280;11789;53.482;9.862;2024-01-16T00:10:48;100320.38;;;-1.60;100.00
23241;BME280;11789;53.482;9.862;2024-01-16T00:13:14;100318.75;;;-1.58;100.00
23241;BME280;11789;53.482;9.862;2024-01-16T00:15:39;100326.31;;;-1.59;100.00
23241;BME280;11789;53.482;9.862;2024-01-16T00:18:07;100328.66;;;-1.64;100.00
23241;BME280;11789;53.482;9.862;2024-01-16T00:20:33;100330.16;;;-1.69;100.00
23241;BME280;11789;53.482;9.862;2024-01-16T00:22:59;100332.59;;;-1.72;100.00
23241;BME280;11789;53.482;9.862;2024-01-16T00:25:25;100349.31;;;-1.75;100.00
23241;BME280;11789;53.482;9.862;2024-01-16T00:27:51;100350.00;;;-1.79;100.00
23241;BME280;11789;53.482;9.862;2024-01-16T00:30:16;100352.34;;;-1.84;100.00
23241;BME280;11789;53.482;9.862;2024-01-16T00:32:42;100354.03;;;-1.85;100.00
23241;BME280;11789;53.482;9.862;2024-01-16T00:35:08;100361.56;;;-1.86;100.00
23241;BME280;11789;53.482;9.862;2024-01-16T00:37:35;100359.75;;;-1.89;100.00
23241;BME280;11789;53.482;9.862;2024-01-16T00:40:00;100365.59;;;-1.91;100.00
23241;BME280;11789;53.482;9.862;2024-01-16T00:42:26;100366.37;;;-1.92;100.00
23241;BME280;11789;53.482;9.862;2024-01-16T00:44:52;100368.59;;;-2.00;100.00
23241;BME280;11789;53.482;9.862;2024-01-16T00:47:17;100358.31;;;-2.03;100.00
23241;BME280;11789;53.482;9.862;2024-01-16T00:49:43;100356.69;;;-2.02;100.00
23241;BME280;11789;53.482;9.862;2024-01-16T00:52:08;100375.28;;;-2.02;100.00
23241;BME280;11789;53.482;9.862;2024-01-16T00:54:33;100381.12;;;-2.03;100.00
23241;BME280;11789;53.482;9.862;2024-01-16T00:56:59;100384.78;;;-1.96;100.00
23241;BME280;11789;53.482;9.862;2024-01-16T00:59:25;100382.25;;;-1.96;100.00
23241;BME280;11789;53.482;9.862;2024-01-16T01:01:51;100384.69;;;-1.98;100.00
23241;BME280;11789;53.482;9.862;2024-01-16T01:04:17;100390.81;;;-1.93;100.00
23241;BME280;11789;53.482;9.862;2024-01-16T01:06:42;100394.56;;;-1.85;100.00
23241;BME280;11789;53.482;9.862;2024-01-16T01:09:07;100403.78;;;-1.87;100.00
23241;BME280;11789;53.482;9.862;2024-01-16T01:11:33;100413.81;;;-1.88;100.00
23241;BME280;11789;53.482;9.862;2024-01-16T01:13:58;100408.69;;;-1.90;100.00
23241;BME280;11789;53.482;9.862;2024-01-16T01:16:24;100413.09;;;-1.86;100.00
23241;BME280;11789;53.482;9.862;2024-01-16T01:18:50;100406.34;;;-1.85;100.00
23241;BME280;11789;53.482;9.862;2024-01-16T01:21:15;100408.91;;;-1.85;100.00
23241;BME280;11789;53.482;9.862;2024-01-16T01:23:41;100409.69;;;-1.86;100.00
23241;BME280;11789;53.482;9.862;2024-01-16T01:26:06;100402.34;;;-1.80;100.00
23241;BME280;11789;53.482;9.862;2024-01-16T01:28:32;100406.66;;;-1.77;100.00
23241;BME280;11789;53.482;9.862;2024-01-16T01:30:57;100402.53;;;-1.75;100.00
23241;BME280;11789;53.482;9.862;2024-01-16T01:33:22;100407.75;;;-1.72;100.00
23241;BME280;11789;53.482;9.862;2024-01-16T01:35:48;100406.84;;;-1.73;100.00
23241;BME280;11789;53.482;9.862;2024-01-16T01:38:13;100406.84;;;-1.73;100.00
23241;BME280;11789;53.482;9.862;2024-01-16T01:40:39;100405.94;;;-1.75;100.00
23241;BME280;11789;53.482;9.862;2024-01-16T01:43:18;100410.37;;;-1.69;100.00
23241;BME280;11789;53.482;9.862;2024-01-16T01:45:47;100413.06;;;-1.66;100.00
23241;BME280;11789;53.482;9.862;2024-01-16T01:48:19;100421.56;;;-1.64;100.00
23241;BME280;11789;53.482;9.862;2024-01-16T01:50:44;100426.69;;;-1.63;100.00
23241;BME280;11789;53.482;9.862;2024-01-16T01:53:10;100427.59;;;-1.62;100.00
23241;BME280;11789;53.482;9.862;2024-01-16T01:55:35;100431.91;;;-1.60;100.00
23241;BME280;11789;53.482;9.862;2024-01-16T01:58:01;100442.09;;;-1.58;100.00
23241;BME280;11789;53.482;9.862;2024-01-16T02:00:30;100436.97;;;-1.60;100.00
23241;BME280;11789;53.482;9.862;2024-01-16T02:02:55;100434.44;;;-1.60;100.00
23241;BME280;11789;53.482;9.862;2024-01-16T02:05:21;100451.28;;;-1.62;100.00
23241;BME280;11789;53.482;9.862;2024-01-16T02:07:47;100453.81;;;-1.62;100.00
23241;BME280;11789;53.482;9.862;2024-01-16T02:10:13;100464.72;;;-1.63;100.00
23241;BME280;11789;53.482;9.862;2024-01-16T02:12:39;100456.94;;;-1.67;100.00
23241;BME280;11789;53.482;9.862;2024-01-16T02:15:05;100462.78;;;-1.68;100.00
23241;BME280;11789;53.482;9.862;2024-01-16T02:17:30;100459.28;;;-1.72;100.00
23241;BME280;11789;53.482;9.862;2024-01-16T02:19:55;100465.88;;;-1.75;100.00
23241;BME280;11789;53.482;9.862;2024-01-16T02:22:25;100464.03;;;-1.79;100.00
23241;BME280;11789;53.482;9.862;2024-01-16T02:24:51;100465.75;;;-1.78;100.00
23241;BME280;11789;53.482;9.862;2024-01-16T02:27:17;100470.00;;;-1.77;100.00
23241;BME280;11789;53.482;9.862;2024-01-16T02:29:43;100461.53;;;-1.78;100.00
23241;BME280;11789;53.482;9.862;2024-01-16T02:32:11;100464.16;;;-1.76;100.00
23241;BME280;11789;53.482;9.862;2024-01-16T02:34:38;100465.88;;;-1.75;100.00
23241;BME280;11789;53.482;9.862;2024-01-16T02:37:03;100470.09;;;-1.76;100.00
23241;BME280;11789;53.482;9.862;2024-01-16T02:39:29;100471.75;;;-1.76;100.00
23241;BME280;11789;53.482;9.862;2024-01-16T02:41:55;100471.47;;;-1.83;100.00
23241;BME280;11789;53.482;9.862;2024-01-16T02:44:20;100475.62;;;-1.85;100.00
23241;BME280;11789;53.482;9.862;2024-01-16T02:46:45;100480.56;;;-1.88;100.00
23241;BME280;11789;53.482;9.862;2024-01-16T02:49:11;100469.44;;;-1.91;100.00
23241;BME280;11789;53.482;9.862;2024-01-16T02:51:37;100480.84;;;-1.81;100.00
23241;BME280;11789;53.482;9.862;2024-01-16T02:54:02;100473.84;;;-1.87;100.00
23241;BME280;11789;53.482;9.862;2024-01-16T02:56:27;100463.38;;;-1.95;100.00
23241;BME280;11789;53.482;9.862;2024-01-16T02:58:53;100460.56;;;-2.01;100.00
23241;BME280;11789;53.482;9.862;2024-01-16T03:01:18;100455.38;;;-2.04;100.00
23241;BME280;11789;53.482;9.862;2024-01-16T03:03:44;100456.19;;;-2.05;100.00
23241;BME280;11789;53.482;9.862;2024-01-16T03:06:09;100457.78;;;-2.07;100.00
23241;BME280;11789;53.482;9.862;2024-01-16T03:08:35;100454.09;;;-2.14;100.00
23241;BME280;11789;53.482;9.862;2024-01-16T03:11:00;100455.66;;;-2.17;100.00
23241;BME280;11789;53.482;9.862;2024-01-16T03:13:26;100458.97;;;-2.18;100.00
23241;BME280;11789;53.482;9.862;2024-01-16T03:15:51;100455.50;;;-2.20;100.00
23241;BME280;11789;53.482;9.862;2024-01-16T03:18:16;100457.25;;;-2.19;100.00
23241;BME280;11789;53.482;9.862;2024-01-16T03:20:43;100457.84;;;-2.25;100.00
23241;BME280;11789;53.482;9.862;2024-01-16T03:23:08;100466.44;;;-2.21;100.00
23241;BME280;11789;53.482;9.862;2024-01-16T03:25:34;100466.38;;;-2.23;100.00
23241;BME280;11789;53.482;9.862;2024-01-16T03:28:04;100475.62;;;-2.23;100.00
23241;BME280;11789;53.482;9.862;2024-01-16T03:30:30;100470.72;;;-2.20;100.00
23241;BME280;11789;53.482;9.862;2024-01-16T03:32:55;100463.78;;;-2.24;100.00
23241;BME280;11789;53.482;9.862;2024-01-16T03:35:20;100461.13;;;-2.27;100.00
23241;BME280;11789;53.482;9.862;2024-01-16T03:37:46;100454.13;;;-2.33;100.00
23241;BME280;11789;53.482;9.862;2024-01-16T03:40:12;100454.84;;;-2.36;100.00
23241;BME280;11789;53.482;9.862;2024-01-16T03:42:38;100458.81;;;-2.41;100.00
23241;BME280;11789;53.482;9.862;2024-01-16T03:45:05;100451.88;;;-2.45;100.00
23241;BME280;11789;53.482;9.862;2024-01-16T03:47:31;100457.81;;;-2.44;100.00
23241;BME280;11789;53.482;9.862;2024-01-16T03:49:56;100460.22;;;-2.47;100.00
23241;BME280;11789;53.482;9.862;2024-01-16T03:52:22;100458.41;;;-2.50;100.00
23241;BME280;11789;53.482;9.862;2024-01-16T03:54:48;100454.91;;;-2.53;100.00
23241;BME280;11789;53.482;9.862;2024-01-16T03:57:13;100454.91;;;-2.53;100.00
23241;BME280;11789;53.482;9.862;2024-01-16T03:59:39;100459.22;;;-2.51;100.00
23241;BME280;11789;53.482;9.862;2024-01-16T04:02:04;100462.59;;;-2.50;100.00
23241;BME280;11789;53.482;9.862;2024-01-16T04:04:30;100474.25;;;-2.54;100.00
23241;BME280;11789;53.482;9.862;2024-01-16T04:06:55;100464.94;;;-2.55;100.00
23241;BME280;11789;53.482;9.862;2024-01-16T04:09:20;100469.94;;;-2.56;100.00
23241;BME280;11789;53.482;9.862;2024-01-16T04:11:50;100475.72;;;-2.59;100.00
23241;BME280;11789;53.482;9.862;2024-01-16T04:14:15;100477.31;;;-2.61;100.00
23241;BME280;11789;53.482;9.862;2024-01-16T04:16:41;100475.59;;;-2.62;100.00
23241;BME280;11789;53.482;9.862;2024-01-16T04:19:06;100462.72;;;-2.67;100.00
23241;BME280;11789;53.482;9.862;2024-01-16T04:21:32;100468.59;;;-2.68;100.00
23241;BME280;11789;53.482;9.862;2024-01-16T04:23:57;100476.25;;;-2.66;100.00
23241;BME280;11789;53.482;9.862;2024-01-16T04:26:23;100481.28;;;-2.66;100.00
23241;BME280;11789;53.482;9.862;2024-01-16T04:28:50;100485.81;;;-2.59;100.00
23241;BME280;11789;53.482;9.862;2024-01-16T04:31:15;100477.47;;;-2.58;100.00
23241;BME280;11789;53.482;9.862;2024-01-16T04:33:42;100479.47;;;-2.51;100.00
23241;BME280;11789;53.482;9.862;2024-01-16T04:36:08;100463.56;;;-2.48;100.00
23241;BME280;11789;53.482;9.862;2024-01-16T04:38:34;100461.09;;;-2.47;100.00
23241;BME280;11789;53.482;9.862;2024-01-16T04:41:03;100457.69;;;-2.47;100.00
23241;BME280;11789;53.482;9.862;2024-01-16T04:43:29;100456.91;;;-2.46;100.00
23241;BME280;11789;53.482;9.862;2024-01-16T04:45:54;100452.53;;;-2.49;100.00
23241;BME280;11789;53.482;9.862;2024-01-16T04:48:19;100448.22;;;-2.51;100.00
23241;BME280;11789;53.482;9.862;2024-01-16T04:50:45;100458.34;;;-2.51;100.00
23241;BME280;11789;53.482;9.862;2024-01-16T04:53:10;100453.34;;;-2.50;100.00
23241;BME280;11789;53.482;9.862;2024-01-16T04:55:36;100450.00;;;-2.49;100.00
23241;BME280;11789;53.482;9.862;2024-01-16T04:58:02;100461.91;;;-2.48;100.00
23241;BME280;11789;53.482;9.862;2024-01-16T05:00:27;100460.22;;;-2.47;100.00
23241;BME280;11789;53.482;9.862;2024-01-16T05:02:53;100458.78;;;-2.42;100.00
23241;BME280;11789;53.482;9.862;2024-01-16T05:05:18;100454.41;;;-2.45;100.00
23241;BME280;11789;53.482;9.862;2024-01-16T05:07:44;100453.72;;;-2.42;100.00
23241;BME280;11789;53.482;9.862;2024-01-16T05:10:11;100464.69;;;-2.42;100.00
23241;BME280;11789;53.482;9.862;2024-01-16T05:12:40;100458.81;;;-2.41;100.00
23241;BME280;11789;53.482;9.862;2024-01-16T05:15:06;100459.84;;;-2.37;100.00
23241;BME280;11789;53.482;9.862;2024-01-16T05:17:32;100462.50;;;-2.34;100.00
23241;BME280;11789;53.482;9.862;2024-01-16T05:19:59;100460.09;;;-2.31;100.00
23241;BME280;11789;53.482;9.862;2024-01-16T05:22:24;100461.13;;;-2.27;100.00
23241;BME280;11789;53.482;9.862;2024-01-16T05:24:51;100466.31;;;-2.24;100.00
23241;BME280;11789;53.482;9.862;2024-01-16T05:27:16;100467.25;;;-2.22;100.00
23241;BME280;11789;53.482;9.862;2024-01-16T05:29:42;100472.44;;;-2.19;100.00
23241;BME280;11789;53.482;9.862;2024-01-16T05:32:07;100470.84;;;-2.17;100.00
23241;BME280;11789;53.482;9.862;2024-01-16T05:34:32;100464.97;;;-2.16;100.00
23241;BME280;11789;53.482;9.862;2024-01-16T05:36:58;100460.84;;;-2.14;100.00
23241;BME280;11789;53.482;9.862;2024-01-16T05:39:23;100459.25;;;-2.12;100.00
23241;BME280;11789;53.482;9.862;2024-01-16T05:41:49;100459.38;;;-2.09;100.00
23241;BME280;11789;53.482;9.862;2024-01-16T05:44:15;100457.69;;;-2.09;100.00
23241;BME280;11789;53.482;9.862;2024-01-16T05:46:41;100460.37;;;-2.05;100.00
23241;BME280;11789;53.482;9.862;2024-01-16T05:49:06;100454.41;;;-2.07;100.00
23241;BME280;11789;53.482;9.862;2024-01-16T05:51:32;100459.50;;;-2.06;100.00
23241;BME280;11789;53.482;9.862;2024-01-16T05:53:57;100456.94;;;-2.07;100.00
23241;BME280;11789;53.482;9.862;2024-01-16T05:56:23;100453.38;;;-2.11;100.00
23241;BME280;11789;53.482;9.862;2024-01-16T05:58:48;100452.59;;;-2.10;100.00
23241;BME280;11789;53.482;9.862;2024-01-16T06:01:14;100451.56;;;-2.14;100.00
23241;BME280;11789;53.482;9.862;2024-01-16T06:03:40;100457.37;;;-2.16;100.00
23241;BME280;11789;53.482;9.862;2024-01-16T06:06:06;100453.03;;;-2.19;100.00
23241;BME280;11789;53.482;9.862;2024-01-16T06:08:33;100451.38;;;-2.18;100.00
23241;BME280;11789;53.482;9.862;2024-01-16T06:10:58;100459.78;;;-2.19;100.00
23241;BME280;11789;53.482;9.862;2024-01-16T06:13:23;100458.97;;;-2.18;100.00
23241;BME280;11789;53.482;9.862;2024-01-16T06:15:49;100459.12;;;-2.15;100.00
23241;BME280;11789;53.482;9.862;2024-01-16T06:18:14;100464.31;;;-2.12;100.00
23241;BME280;11789;53.482;9.862;2024-01-16T06:20:40;100472.84;;;-2.10;100.00
23241;BME280;11789;53.482;9.862;2024-01-16T06:23:05;100476.44;;;-2.05;100.00
23241;BME280;11789;53.482;9.862;2024-01-16T06:25:30;100469.75;;;-2.03;100.00
23241;BME280;11789;53.482;9.862;2024-01-16T06:27:56;100464.69;;;-2.03;100.00
23241;BME280;11789;53.482;9.862;2024-01-16T06:30:22;100465.75;;;-1.98;100.00
23241;BME280;11789;53.482;9.862;2024-01-16T06:32:48;100469.09;;;-1.99;100.00
23241;BME280;11789;53.482;9.862;2024-01-16T06:35:15;100464.03;;;-1.99;100.00
23241;BME280;11789;53.482;9.862;2024-01-16T06:37:41;100460.69;;;-1.98;100.00
23241;BME280;11789;53.482;9.862;2024-01-16T06:40:06;100463.16;;;-1.99;100.00
23241;BME280;11789;53.482;9.862;2024-01-16T06:42:32;100455.50;;;-2.01;100.00
23241;BME280;11789;53.482;9.862;2024-01-16T06:44:58;100458.03;;;-2.01;100.00
23241;BME280;11789;53.482;9.862;2024-01-16T06:47:24;100454.00;;;-1.97;100.00
23241;BME280;11789;53.482;9.862;2024-01-16T06:49:49;100465.91;;;-1.95;100.00
23241;BME280;11789;53.482;9.862;2024-01-16T06:52:15;100449.91;;;-1.94;100.00
23241;BME280;11789;53.482;9.862;2024-01-16T06:54:40;100466.09;;;-1.90;100.00
23241;BME280;11789;53.482;9.862;2024-01-16T06:57:05;100461.91;;;-1.90;100.00
23241;BME280;11789;53.482;9.862;2024-01-16T06:59:31;100458.56;;;-1.89;100.00
23241;BME280;11789;53.482;9.862;2024-01-16T07:01:57;100463.72;;;-1.87;100.00
23241;BME280;11789;53.482;9.862;2024-01-16T07:04:22;100465.34;;;-1.88;100.00
23241;BME280;11789;53.482;9.862;2024-01-16T07:06:48;100469.69;;;-1.85;100.00
23241;BME280;11789;53.482;9.862;2024-01-16T07:09:14;100463.00;;;-1.83;100.00
23241;BME280;11789;53.482;9.862;2024-01-16T07:11:41;100468.88;;;-1.84;100.00
23241;BME280;11789;53.482;9.862;2024-01-16T07:14:09;100468.09;;;-1.83;100.00
23241;BME280;11789;53.482;9.862;2024-01-16T07:16:34;100467.22;;;-1.84;100.00
23241;BME280;11789;53.482;9.862;2024-01-16T07:19:01;100468.88;;;-1.84;100.00
23241;BME280;11789;53.482;9.862;2024-01-16T07:21:26;100468.84;;;-1.86;100.00
23241;BME280;11789;53.482;9.862;2024-01-16T07:23:53;100463.63;;;-1.89;100.00
23241;BME280;11789;53.482;9.862;2024-01-16T07:26:18;100473.69;;;-1.90;100.00
23241;BME280;11789;53.482;9.862;2024-01-16T07:28:44;100476.19;;;-1.92;100.00
23241;BME280;11789;53.482;9.862;2024-01-16T07:31:09;100488.09;;;-1.89;100.00
23241;BME280;11789;53.482;9.862;2024-01-16T07:33:35;100479.69;;;-1.88;100.00
23241;BME280;11789;53.482;9.862;2024-01-16T07:36:01;100474.63;;;-1.88;100.00
23241;BME280;11789;53.482;9.862;2024-01-16T07:38:26;100474.63;;;-1.88;100.00
23241;BME280;11789;53.482;9.862;2024-01-16T07:40:52;100481.44;;;-1.87;100.00
23241;BME280;11789;53.482;9.862;2024-01-16T07:43:17;100479.69;;;-1.88;100.00
23241;BME280;11789;53.482;9.862;2024-01-16T07:45:43;100488.25;;;-1.86;100.00
23241;BME280;11789;53.482;9.862;2024-01-16T07:48:08;100486.56;;;-1.86;100.00
23241;BME280;11789;53.482;9.862;2024-01-16T07:50:34;100496.66;;;-1.87;100.00
23241;BME280;11789;53.482;9.862;2024-01-16T07:52:59;100493.22;;;-1.88;100.00
23241;BME280;11789;53.482;9.862;2024-01-16T07:55:24;100494.13;;;-1.87;100.00
23241;BME280;11789;53.482;9.862;2024-01-16T07:57:50;100493.41;;;-1.83;100.00
23241;BME280;11789;53.482;9.862;2024-01-16T08:00:16;100487.44;;;-1.85;100.00
23241;BME280;11789;53.482;9.862;2024-01-16T08:02:41;100497.63;;;-1.84;100.00
23241;BME280;11789;53.482;9.862;2024-01-16T08:05:07;100497.78;;;-1.80;100.00
23241;BME280;11789;53.482;9.862;2024-01-16T08:07:32;100494.47;;;-1.78;100.00
23241;BME280;11789;53.482;9.862;2024-01-16T08:09:58;100491.09;;;-1.78;100.00
23241;BME280;11789;53.482;9.862;2024-01-16T08:12:23;100479.28;;;-1.78;100.00
23241;BME280;11789;53.482;9.862;2024-01-16T08:14:49;100484.53;;;-1.73;100.00
23241;BME280;11789;53.482;9.862;2024-01-16T08:17:14;100482.81;;;-1.74;100.00
23241;BME280;11789;53.482;9.862;2024-01-16T08:19:41;100482.09;;;-1.72;100.00
23241;BME280;11789;53.482;9.862;2024-01-16T08:22:06;100496.59;;;-1.68;100.00
23241;BME280;11789;53.482;9.862;2024-01-16T08:24:32;100495.84;;;-1.67;100.00
23241;BME280;11789;53.482;9.862;2024-01-16T08:26:57;100490.00;;;-1.64;100.00
23241;BME280;11789;53.482;9.862;2024-01-16T08:29:24;100497.75;;;-1.61;100.00
23241;BME280;11789;53.482;9.862;2024-01-16T08:31:50;100492.69;;;-1.61;100.00
23241;BME280;11789;53.482;9.862;2024-01-16T08:34:17;100486.81;;;-1.60;100.00
23241;BME280;11789;53.482;9.862;2024-01-16T08:36:44;100490.25;;;-1.58;100.00
23241;BME280;11789;53.482;9.862;2024-01-16T08:39:09;100489.53;;;-1.55;100.00
23241;BME280;11789;53.482;9.862;2024-01-16T08:41:36;100492.94;;;-1.55;100.00
23241;BME280;11789;53.482;9.862;2024-01-16T08:44:01;100493.06;;;-1.52;100.00
23241;BME280;11789;53.482;9.862;2024-01-16T08:46:26;100489.66;;;-1.52;100.00
23241;BME280;11789;53.482;9.862;2024-01-16T08:48:52;100487.19;;;-1.51;100.00
23241;BME280;11789;53.482;9.862;2024-01-16T08:51:17;100489.84;;;-1.48;100.00
23241;BME280;11789;53.482;9.862;2024-01-16T08:53:43;100490.78;;;-1.46;100.00
23241;BME280;11789;53.482;9.862;2024-01-16T08:56:08;100489.97;;;-1.45;100.00
23241;BME280;11789;53.482;9.862;2024-01-16T08:58:34;100496.81;;;-1.42;100.00
23241;BME280;11789;53.482;9.862;2024-01-16T09:01:07;100492.66;;;-1.42;100.00
23241;BME280;11789;53.482;9.862;2024-01-16T09:03:33;100491.91;;;-1.39;100.00
23241;BME280;11789;53.482;9.862;2024-01-16T09:06:00;100498.78;;;-1.37;100.00
23241;BME280;11789;53.482;9.862;2024-01-16T09:08:26;100492.81;;;-1.37;100.00
23241;BME280;11789;53.482;9.862;2024-01-16T09:10:55;100502.09;;;-1.38;100.00
23241;BME280;11789;53.482;9.862;2024-01-16T09:13:21;100496.28;;;-1.35;100.00
23241;BME280;11789;53.482;9.862;2024-01-16T09:15:49;100506.62;;;-1.31;100.00
23241;BME280;11789;53.482;9.862;2024-01-16T09:18:15;100504.38;;;-1.23;100.00
23241;BME280;11789;53.482;9.862;2024-01-16T09:20:42;100501.03;;;-1.22;100.00
23241;BME280;11789;53.482;9.862;2024-01-16T09:23:07;100489.25;;;-1.00;100.00
23241;BME280;11789;53.482;9.862;2024-01-16T09:25:34;100496.59;;;-0.86;100.00
23241;BME280;11789;53.482;9.862;2024-01-16T09:28:00;100497.97;;;-0.94;100.00
23241;BME280;11789;53.482;9.862;2024-01-16T09:30:26;100501.97;;;-0.99;100.00
23241;BME280;11789;53.482;9.862;2024-01-16T09:32:51;100499.62;;;-0.94;100.00
23241;BME280;11789;53.482;9.862;2024-01-16T09:35:17;100499.81;;;-0.90;100.00
23241;BME280;11789;53.482;9.862;2024-01-16T09:37:42;100505.53;;;-0.95;100.00
23241;BME280;11789;53.482;9.862;2024-01-16T09:40:08;100502.13;;;-0.96;100.00
23241;BME280;11789;53.482;9.862;2024-01-16T09:42:34;100503.66;;;-0.99;100.00
23241;BME280;11789;53.482;9.862;2024-01-16T09:45:02;100510.59;;;-0.95;100.00
23241;BME280;11789;53.482;9.862;2024-01-16T09:47:30;100523.19;;;-0.97;100.00
23241;BME280;11789;53.482;9.862;2024-01-16T09:49:59;100518.94;;;-0.98;100.00
23241;BME280;11789;53.482;9.862;2024-01-16T09:52:25;100527.31;;;-1.00;100.00
23241;BME280;11789;53.482;9.862;2024-01-16T09:54:51;100522.03;;;-1.05;100.00
23241;BME280;11789;53.482;9.862;2024-01-16T09:57:19;100533.78;;;-1.07;100.00
23241;BME280;11789;53.482;9.862;2024-01-16T09:59:48;100523.62;;;-1.07;100.00
23241;BME280;11789;53.482;9.862;2024-01-16T10:02:14;100524.63;;;-1.03;100.00
23241;BME280;11789;53.482;9.862;2024-01-16T10:04:41;100528.91;;;-1.02;100.00
23241;BME280;11789;53.482;9.862;2024-01-16T10:07:07;100533.16;;;-1.01;100.00
23241;BME280;11789;53.482;9.862;2024-01-16T10:09:34;100539.19;;;-0.99;100.00
23241;BME280;11789;53.482;9.862;2024-01-16T10:12:00;100534.09;;;-0.99;100.00
23241;BME280;11789;53.482;9.862;2024-01-16T10:14:26;100535.81;;;-0.98;100.00
23241;BME280;11789;53.482;9.862;2024-01-16T10:16:55;100536.81;;;-0.95;100.00
23241;BME280;11789;53.482;9.862;2024-01-16T10:19:27;100536.00;;;-0.94;100.00
23241;BME280;11789;53.482;9.862;2024-01-16T10:21:52;100526.91;;;-0.89;100.00
23241;BME280;11789;53.482;9.862;2024-01-16T10:24:25;100532.91;;;-0.87;100.00
23241;BME280;11789;53.482;9.862;2024-01-16T10:26:58;100525.56;;;-0.81;100.00
23241;BME280;11789;53.482;9.862;2024-01-16T10:29:25;100529.25;;;-0.72;100.00
23241;BME280;11789;53.482;9.862;2024-01-16T10:31:50;100532.81;;;-0.67;100.00
23241;BME280;11789;53.482;9.862;2024-01-16T10:34:20;100538.03;;;-0.64;100.00
23241;BME280;11789;53.482;9.862;2024-01-16T10:36:50;100535.59;;;-0.61;100.00
23241;BME280;11789;53.482;9.862;2024-01-16T10:39:16;100543.34;;;-0.58;100.00
23241;BME280;11789;53.482;9.862;2024-01-16T10:41:42;100542.53;;;-0.57;100.00
23241;BME280;11789;53.482;9.862;2024-01-16T10:44:18;100553.38;;;-0.61;100.00
23241;BME280;11789;53.482;9.862;2024-01-16T10:46:44;100542.34;;;-0.62;100.00
23241;BME280;11789;53.482;9.862;2024-01-16T10:49:09;100539.03;;;-0.61;100.00
23241;BME280;11789;53.482;9.862;2024-01-16T10:51:34;100539.75;;;-0.63;100.00
23241;BME280;11789;53.482;9.862;2024-01-16T10:54:03;100547.44;;;-0.62;100.00
23241;BME280;11789;53.482;9.862;2024-01-16T10:56:33;100544.84;;;-0.63;100.00
23241;BME280;11789;53.482;9.862;2024-01-16T11:01:45;100545.06;;;-0.57;100.00
23241;BME280;11789;53.482;9.862;2024-01-16T11:04:14;100541.00;;;-0.54;100.00
23241;BME280;11789;53.482;9.862;2024-01-16T11:06:41;100547.84;;;-0.51;100.00
23241;BME280;11789;53.482;9.862;2024-01-16T11:09:08;100549.81;;;-0.44;100.00
23241;BME280;11789;53.482;9.862;2024-01-16T11:11:34;100548.03;;;-0.46;100.00
23241;BME280;11789;53.482;9.862;2024-01-16T11:14:03;100543.56;;;-0.52;100.00
23241;BME280;11789;53.482;9.862;2024-01-16T11:16:31;100545.25;;;-0.53;100.00
23241;BME280;11789;53.482;9.862;2024-01-16T11:18:57;100546.19;;;-0.50;100.00
23241;BME280;11789;53.482;9.862;2024-01-16T11:21:23;100541.13;;;-0.50;100.00
23241;BME280;11789;53.482;9.862;2024-01-16T11:23:49;100551.41;;;-0.46;100.00
23241;BME280;11789;53.482;9.862;2024-01-16T11:26:35;100554.78;;;-0.47;100.00
23241;BME280;11789;53.482;9.862;2024-01-16T11:31:56;100558.91;;;-0.50;100.00
23241;BME280;11789;53.482;9.862;2024-01-16T11:34:54;100549.53;;;-0.52;100.00
23241;BME280;11789;53.482;9.862;2024-01-16T11:37:27;100549.47;;;-0.53;100.00
23241;BME280;11789;53.482;9.862;2024-01-16T11:42:46;100555.41;;;-0.53;100.00
23241;BME280;11789;53.482;9.862;2024-01-16T11:50:37;100551.28;;;-0.50;100.00
23241;BME280;11789;53.482;9.862;2024-01-16T11:53:03;100550.34;;;-0.53;100.00
23241;BME280;11789;53.482;9.862;2024-01-16T11:55:34;100547.06;;;-0.50;100.00
23241;BME280;11789;53.482;9.862;2024-01-16T12:01:05;100545.66;;;-0.42;100.00
23241;BME280;11789;53.482;9.862;2024-01-16T12:03:30;100541.41;;;-0.43;100.00
23241;BME280;11789;53.482;9.862;2024-01-16T12:05:57;100538.00;;;-0.43;100.00
23241;BME280;11789;53.482;9.862;2024-01-16T12:08:22;100538.84;;;-0.43;100.00
23241;BME280;11789;53.482;9.862;2024-01-16T12:10:48;100542.31;;;-0.41;100.00
23241;BME280;11789;53.482;9.862;2024-01-16T12:13:15;100544.12;;;-0.38;100.00
23241;BME280;11789;53.482;9.862;2024-01-16T12:15:41;100544.94;;;-0.39;100.00
23241;BME280;11789;53.482;9.862;2024-01-16T12:18:07;100552.47;;;-0.41;100.00
23241;BME280;11789;53.482;9.862;2024-01-16T12:20:35;100553.34;;;-0.40;100.00
23241;BME280;11789;53.482;9.862;2024-01-16T12:23:02;100553.19;;;-0.45;100.00
23241;BME280;11789;53.482;9.862;2024-01-16T12:25:31;100556.50;;;-0.46;100.00
23241;BME280;11789;53.482;9.862;2024-01-16T12:30:28;100558.91;;;-0.50;100.00
23241;BME280;11789;53.482;9.862;2024-01-16T12:33:08;100558.00;;;-0.51;100.00
23241;BME280;11789;53.482;9.862;2024-01-16T12:35:41;100558.81;;;-0.52;100.00
23241;BME280;11789;53.482;9.862;2024-01-16T12:38:09;100557.12;;;-0.52;100.00
23241;BME280;11789;53.482;9.862;2024-01-16T12:40:55;100548.66;;;-0.52;100.00
23241;BME280;11789;53.482;9.862;2024-01-16T12:43:21;100555.47;;;-0.51;100.00
23241;BME280;11789;53.482;9.862;2024-01-16T12:45:54;100546.97;;;-0.52;100.00
23241;BME280;11789;53.482;9.862;2024-01-16T12:48:26;100552.88;;;-0.53;100.00
23241;BME280;11789;53.482;9.862;2024-01-16T12:50:51;100552.00;;;-0.53;100.00
23241;BME280;11789;53.482;9.862;2024-01-16T12:53:23;100551.16;;;-0.54;100.00
23241;BME280;11789;53.482;9.862;2024-01-16T12:56:00;100552.00;;;-0.53;100.00